createdAt,value
2017-10-27T00:00:42.301Z,983.91
2017-10-27T00:01:42.302Z,983.89
2017-10-27T00:02:42.297Z,983.86
2017-10-27T00:03:42.297Z,983.84
2017-10-27T00:04:42.297Z,983.82
2017-10-27T00:05:42.296Z,983.77
2017-10-27T00:06:42.290Z,983.78
2017-10-27T00:07:42.289Z,983.74
2017-10-27T00:08:42.299Z,983.71
2017-10-27T00:09:42.287Z,983.69
2017-10-27T00:10:42.287Z,983.68
2017-10-27T00:11:42.287Z,983.65
2017-10-27T00:12:42.285Z,983.63
2017-10-27T00:13:42.283Z,983.65
2017-10-27T00:14:42.284Z,983.63
2017-10-27T00:15:42.279Z,983.61
2017-10-27T00:16:42.281Z,983.62
2017-10-27T00:17:42.291Z,983.63
2017-10-27T00:18:42.275Z,983.62
2017-10-27T00:19:42.274Z,983.60
2017-10-27T00:20:42.272Z,983.59
2017-10-27T00:21:42.270Z,983.52
2017-10-27T00:22:42.269Z,983.55
2017-10-27T00:23:42.267Z,983.53
2017-10-27T00:24:42.270Z,983.54
2017-10-27T00:25:42.271Z,983.47
2017-10-27T00:26:42.260Z,983.51
2017-10-27T00:27:42.259Z,983.50
2017-10-27T00:28:42.263Z,983.46
2017-10-27T00:29:42.265Z,983.48
2017-10-27T00:30:42.257Z,983.46
2017-10-27T00:31:42.255Z,983.46
2017-10-27T00:32:42.266Z,983.44
2017-10-27T00:33:42.254Z,983.45
2017-10-27T00:34:42.266Z,983.41
2017-10-27T00:35:42.250Z,983.47
2017-10-27T00:36:42.247Z,983.46
2017-10-27T00:37:42.248Z,983.53
2017-10-27T00:38:42.246Z,983.48
2017-10-27T00:39:42.247Z,983.47
2017-10-27T00:40:42.257Z,983.42
2017-10-27T00:41:42.244Z,983.42
2017-10-27T00:42:42.243Z,983.42
2017-10-27T00:43:42.241Z,983.42
2017-10-27T00:44:42.239Z,983.40
2017-10-27T00:45:42.247Z,983.36
2017-10-27T00:46:42.237Z,983.40
2017-10-27T00:47:42.234Z,983.30
2017-10-27T00:48:42.232Z,983.33
2017-10-27T00:49:42.232Z,983.33
2017-10-27T00:50:42.232Z,983.39
2017-10-27T00:51:42.236Z,983.39
2017-10-27T00:52:42.228Z,983.38
2017-10-27T00:53:42.225Z,983.39
2017-10-27T00:54:42.222Z,983.40
2017-10-27T00:55:42.221Z,983.39
2017-10-27T00:56:42.384Z,983.39
2017-10-27T00:57:42.944Z,983.43
2017-10-27T00:58:42.216Z,983.48
2017-10-27T00:59:42.215Z,983.33
2017-10-27T01:00:42.214Z,983.25
2017-10-27T01:01:42.215Z,983.25
2017-10-27T01:02:42.209Z,983.23
2017-10-27T01:03:42.216Z,983.23
2017-10-27T01:04:42.210Z,983.28
2017-10-27T01:05:42.206Z,983.26
2017-10-27T01:06:42.208Z,983.29
2017-10-27T01:07:42.204Z,983.24
2017-10-27T01:08:42.198Z,983.19
2017-10-27T01:09:42.203Z,983.16
2017-10-27T01:10:42.198Z,983.19
2017-10-27T01:11:42.199Z,983.17
2017-10-27T01:12:42.191Z,983.16
2017-10-27T01:13:42.195Z,983.15
2017-10-27T01:14:42.186Z,983.15
2017-10-27T01:15:42.194Z,983.07
2017-10-27T01:16:42.187Z,983.08
2017-10-27T01:17:42.185Z,983.12
2017-10-27T01:18:42.194Z,983.07
2017-10-27T01:19:42.178Z,983.06
2017-10-27T01:20:42.177Z,983.09
2017-10-27T01:21:42.180Z,983.09
2017-10-27T01:22:42.176Z,983.03
2017-10-27T01:23:42.192Z,982.96
2017-10-27T01:24:42.169Z,982.99
2017-10-27T01:25:42.167Z,982.97
2017-10-27T01:26:42.166Z,982.99
2017-10-27T01:27:42.165Z,982.97
2017-10-27T01:28:42.165Z,983.00
2017-10-27T01:29:42.161Z,983.00
2017-10-27T01:30:42.156Z,983.02
2017-10-27T01:31:42.151Z,982.94
2017-10-27T01:32:42.151Z,982.90
2017-10-27T01:33:42.156Z,982.88
2017-10-27T01:34:42.156Z,982.88
2017-10-27T01:35:42.157Z,982.84
2017-10-27T01:36:42.146Z,982.85
2017-10-27T01:37:42.142Z,982.85
2017-10-27T01:38:42.141Z,982.81
2017-10-27T01:39:42.135Z,982.77
2017-10-27T01:40:42.133Z,982.74
2017-10-27T01:41:42.134Z,982.70
2017-10-27T01:42:42.128Z,982.72
2017-10-27T01:43:42.122Z,982.75
2017-10-27T01:44:42.119Z,982.74
2017-10-27T01:45:42.121Z,982.61
2017-10-27T01:46:42.118Z,982.61
2017-10-27T01:47:42.117Z,982.56
2017-10-27T01:48:42.114Z,982.56
2017-10-27T01:49:42.109Z,982.57
2017-10-27T01:50:42.108Z,982.57
2017-10-27T01:51:42.107Z,982.59
2017-10-27T01:52:42.108Z,982.56
2017-10-27T01:53:42.104Z,982.54
2017-10-27T01:54:42.096Z,982.53
2017-10-27T01:55:42.096Z,982.53
2017-10-27T01:56:42.092Z,982.58
2017-10-27T01:57:42.091Z,982.54
2017-10-27T01:58:42.089Z,982.53
2017-10-27T01:59:42.084Z,982.59
2017-10-27T02:00:42.084Z,982.61
2017-10-27T02:01:42.083Z,982.58
2017-10-27T02:02:42.102Z,982.61
2017-10-27T02:03:42.076Z,982.61
2017-10-27T02:04:42.072Z,982.58
2017-10-27T02:05:42.069Z,982.59
2017-10-27T02:06:42.064Z,982.53
2017-10-27T02:07:42.063Z,982.54
2017-10-27T02:08:42.071Z,982.56
2017-10-27T02:09:42.057Z,982.49
2017-10-27T02:10:42.056Z,982.57
2017-10-27T02:11:42.056Z,982.50
2017-10-27T02:12:42.051Z,982.48
2017-10-27T02:13:42.047Z,982.47
2017-10-27T02:14:42.044Z,982.45
2017-10-27T02:15:42.042Z,982.47
2017-10-27T02:16:42.042Z,982.44
2017-10-27T02:17:42.037Z,982.41
2017-10-27T02:18:42.033Z,982.43
2017-10-27T02:19:42.028Z,982.32
2017-10-27T02:20:42.028Z,982.31
2017-10-27T02:21:42.027Z,982.36
2017-10-27T02:22:42.020Z,982.33
2017-10-27T02:23:42.022Z,982.30
2017-10-27T02:24:42.016Z,982.31
2017-10-27T02:25:42.012Z,982.31
2017-10-27T02:26:42.011Z,982.29
2017-10-27T02:27:42.004Z,982.28
2017-10-27T02:28:42.006Z,982.31
2017-10-27T02:29:42.000Z,982.36
2017-10-27T02:30:41.997Z,982.38
2017-10-27T02:31:41.996Z,982.41
2017-10-27T02:32:41.992Z,982.38
2017-10-27T02:33:41.988Z,982.40
2017-10-27T02:34:41.985Z,982.37
2017-10-27T02:35:41.982Z,982.39
2017-10-27T02:36:41.980Z,982.35
2017-10-27T02:37:41.971Z,982.29
2017-10-27T02:38:41.975Z,982.26
2017-10-27T02:39:41.977Z,982.28
2017-10-27T02:40:41.969Z,982.28
2017-10-27T02:41:41.967Z,982.29
2017-10-27T02:42:41.963Z,982.29
2017-10-27T02:43:41.962Z,982.35
2017-10-27T02:44:41.956Z,982.29
2017-10-27T02:45:41.958Z,982.31
2017-10-27T02:46:41.951Z,982.27
2017-10-27T02:47:41.954Z,982.15
2017-10-27T02:48:41.945Z,982.14
2017-10-27T02:49:41.943Z,982.11
2017-10-27T02:50:41.936Z,982.06
2017-10-27T02:51:41.933Z,982.07
2017-10-27T02:52:41.934Z,982.08
2017-10-27T02:53:41.927Z,982.10
2017-10-27T02:54:41.928Z,982.14
2017-10-27T02:55:41.925Z,982.11
2017-10-27T02:56:41.921Z,982.09
2017-10-27T02:57:41.923Z,982.11
2017-10-27T02:58:41.913Z,982.04
2017-10-27T02:59:41.912Z,982.05
2017-10-27T03:00:41.911Z,982.03
2017-10-27T03:01:41.905Z,982.03
2017-10-27T03:02:41.904Z,982.02
2017-10-27T03:03:41.902Z,982.01
2017-10-27T03:04:41.903Z,982.01
2017-10-27T03:05:41.899Z,982.04
2017-10-27T03:06:41.893Z,982.01
2017-10-27T03:07:41.894Z,982.01
2017-10-27T03:08:41.889Z,981.99
2017-10-27T03:09:41.882Z,981.96
2017-10-27T03:10:41.880Z,981.89
2017-10-27T03:11:41.883Z,981.89
2017-10-27T03:12:41.877Z,981.86
2017-10-27T03:13:41.872Z,981.92
2017-10-27T03:14:41.868Z,981.93
2017-10-27T03:15:41.867Z,982.01
2017-10-27T03:16:41.873Z,981.97
2017-10-27T03:17:41.861Z,982.02
2017-10-27T03:18:41.856Z,982.04
2017-10-27T03:19:41.858Z,981.98
2017-10-27T03:20:41.851Z,982.08
2017-10-27T03:21:41.852Z,982.02
2017-10-27T03:22:41.842Z,982.00
2017-10-27T03:23:41.843Z,982.01
2017-10-27T03:24:41.840Z,982.07
2017-10-27T03:25:41.841Z,981.99
2017-10-27T03:26:41.836Z,982.02
2017-10-27T03:27:41.830Z,981.96
2017-10-27T03:28:41.827Z,982.00
2017-10-27T03:29:41.822Z,981.99
2017-10-27T03:30:41.819Z,982.01
2017-10-27T03:31:41.814Z,981.97
2017-10-27T03:32:41.815Z,981.94
2017-10-27T03:33:41.813Z,981.99
2017-10-27T03:34:41.809Z,981.92
2017-10-27T03:35:41.807Z,981.97
2017-10-27T03:36:41.802Z,982.01
2017-10-27T03:37:41.802Z,982.10
2017-10-27T03:38:41.795Z,982.11
2017-10-27T03:39:41.791Z,982.07
2017-10-27T03:40:41.789Z,982.11
2017-10-27T03:41:41.784Z,982.18
2017-10-27T03:42:41.789Z,982.18
2017-10-27T03:43:41.779Z,982.13
2017-10-27T03:44:41.774Z,982.12
2017-10-27T03:45:41.774Z,982.17
2017-10-27T03:46:41.766Z,982.12
2017-10-27T03:47:41.766Z,982.16
2017-10-27T03:48:41.765Z,982.22
2017-10-27T03:49:41.758Z,982.20
2017-10-27T03:50:41.753Z,982.23
2017-10-27T03:51:41.756Z,982.25
2017-10-27T03:52:41.750Z,982.22
2017-10-27T03:53:41.742Z,982.21
2017-10-27T03:54:41.739Z,982.31
2017-10-27T03:55:41.737Z,982.25
2017-10-27T03:56:41.734Z,982.20
2017-10-27T03:57:41.735Z,982.17
2017-10-27T03:58:41.728Z,982.16
2017-10-27T03:59:41.722Z,982.09
2017-10-27T04:00:41.718Z,982.06
2017-10-27T04:01:41.715Z,982.11
2017-10-27T04:02:41.709Z,982.03
2017-10-27T04:03:41.709Z,982.15
2017-10-27T04:04:41.704Z,982.10
2017-10-27T04:05:41.701Z,982.15
2017-10-27T04:06:41.692Z,982.13
2017-10-27T04:07:41.695Z,982.08
2017-10-27T04:08:41.690Z,982.03
2017-10-27T04:09:41.684Z,982.11
2017-10-27T04:10:41.679Z,982.11
2017-10-27T04:11:41.675Z,982.12
2017-10-27T04:12:41.679Z,982.06
2017-10-27T04:13:41.671Z,982.08
2017-10-27T04:14:41.666Z,982.10
2017-10-27T04:15:41.665Z,982.10
2017-10-27T04:16:41.660Z,982.12
2017-10-27T04:17:41.660Z,982.15
2017-10-27T04:18:41.656Z,982.14
2017-10-27T04:19:41.650Z,982.15
2017-10-27T04:20:41.642Z,982.15
2017-10-27T04:21:41.642Z,982.14
2017-10-27T04:22:41.639Z,982.09
2017-10-27T04:23:41.637Z,982.09
2017-10-27T04:24:41.632Z,982.08
2017-10-27T04:25:41.629Z,982.11
2017-10-27T04:26:41.622Z,982.16
2017-10-27T04:27:41.619Z,982.10
2017-10-27T04:28:41.618Z,982.10
2017-10-27T04:29:41.615Z,982.10
2017-10-27T04:30:41.607Z,982.13
2017-10-27T04:31:41.605Z,982.15
2017-10-27T04:32:41.602Z,982.11
2017-10-27T04:33:41.597Z,982.08
2017-10-27T04:34:41.597Z,982.09
2017-10-27T04:35:41.600Z,982.09
2017-10-27T04:36:41.590Z,982.08
2017-10-27T04:37:41.588Z,982.05
2017-10-27T04:38:41.580Z,982.04
2017-10-27T04:39:41.577Z,982.07
2017-10-27T04:40:41.572Z,982.08
2017-10-27T04:41:41.569Z,982.10
2017-10-27T04:42:41.562Z,982.07
2017-10-27T04:43:41.564Z,982.12
2017-10-27T04:44:41.561Z,982.12
2017-10-27T04:45:41.556Z,982.10
2017-10-27T04:46:41.559Z,982.07
2017-10-27T04:47:41.547Z,981.95
2017-10-27T04:48:41.550Z,981.96
2017-10-27T04:49:41.537Z,981.93
2017-10-27T04:50:41.558Z,981.91
2017-10-27T04:51:41.533Z,981.89
2017-10-27T04:52:41.531Z,981.92
2017-10-27T04:53:41.530Z,981.92
2017-10-27T04:54:41.526Z,981.98
2017-10-27T04:55:41.517Z,981.99
2017-10-27T04:56:41.512Z,981.96
2017-10-27T04:57:41.513Z,981.99
2017-10-27T04:58:41.509Z,982.02
2017-10-27T04:59:41.508Z,981.97
2017-10-27T05:00:41.501Z,981.97
2017-10-27T05:01:43.199Z,981.96
2017-10-27T05:02:41.495Z,981.90
2017-10-27T05:03:41.487Z,981.92
2017-10-27T05:04:41.487Z,981.88
2017-10-27T05:05:41.503Z,981.88
2017-10-27T05:06:41.479Z,981.87
2017-10-27T05:07:41.475Z,981.80
2017-10-27T05:08:41.487Z,981.80
2017-10-27T05:09:41.470Z,981.81
2017-10-27T05:10:41.465Z,981.78
2017-10-27T05:11:41.468Z,981.75
2017-10-27T05:12:41.455Z,981.80
2017-10-27T05:13:41.460Z,981.76
2017-10-27T05:14:41.450Z,981.78
2017-10-27T05:15:41.441Z,981.76
2017-10-27T05:16:41.446Z,981.71
2017-10-27T05:17:41.439Z,981.78
2017-10-27T05:18:41.438Z,981.72
2017-10-27T05:19:41.434Z,981.82
2017-10-27T05:20:41.430Z,981.76
2017-10-27T05:21:41.428Z,981.79
2017-10-27T05:22:41.425Z,981.80
2017-10-27T05:23:41.425Z,981.85
2017-10-27T05:24:41.415Z,981.88
2017-10-27T05:25:41.414Z,981.88
2017-10-27T05:26:41.411Z,981.86
2017-10-27T05:27:41.409Z,981.86
2017-10-27T05:28:41.404Z,981.88
2017-10-27T05:29:41.410Z,981.84
2017-10-27T05:30:41.400Z,981.84
2017-10-27T05:31:41.399Z,981.85
2017-10-27T05:32:41.392Z,981.90
2017-10-27T05:33:41.386Z,981.89
2017-10-27T05:34:41.382Z,981.86
2017-10-27T05:35:41.378Z,981.80
2017-10-27T05:36:41.377Z,981.80
2017-10-27T05:37:41.373Z,981.75
2017-10-27T05:38:41.371Z,981.76
2017-10-27T05:39:41.364Z,981.75
2017-10-27T05:40:41.360Z,981.70
2017-10-27T05:41:41.360Z,981.72
2017-10-27T05:42:41.357Z,981.78
2017-10-27T05:43:41.354Z,981.71
2017-10-27T05:44:41.347Z,981.68
2017-10-27T05:45:41.341Z,981.68
2017-10-27T05:46:41.340Z,981.68
2017-10-27T05:47:41.343Z,981.68
2017-10-27T05:48:41.337Z,981.69
2017-10-27T05:49:41.328Z,981.65
2017-10-27T05:50:41.333Z,981.66
2017-10-27T05:51:41.326Z,981.63
2017-10-27T05:52:41.341Z,981.64
2017-10-27T05:53:41.314Z,981.61
2017-10-27T05:54:41.316Z,981.60
2017-10-27T05:55:41.309Z,981.63
2017-10-27T05:56:41.307Z,981.65
2017-10-27T05:57:41.304Z,981.65
2017-10-27T05:58:41.303Z,981.64
2017-10-27T05:59:41.296Z,981.66
2017-10-27T06:00:41.294Z,981.61
2017-10-27T06:01:41.292Z,981.62
2017-10-27T06:02:41.289Z,981.64
2017-10-27T06:03:41.290Z,981.63
2017-10-27T06:04:41.280Z,981.66
2017-10-27T06:05:41.276Z,981.69
2017-10-27T06:06:41.271Z,981.68
2017-10-27T06:07:41.270Z,981.65
2017-10-27T06:08:41.277Z,981.66
2017-10-27T06:09:41.265Z,981.63
2017-10-27T06:10:41.258Z,981.58
2017-10-27T06:11:41.256Z,981.54
2017-10-27T06:12:41.252Z,981.53
2017-10-27T06:13:41.253Z,981.52
2017-10-27T06:14:41.252Z,981.50
2017-10-27T06:15:41.244Z,981.51
2017-10-27T06:16:41.245Z,981.45
2017-10-27T06:17:41.240Z,981.58
2017-10-27T06:18:41.231Z,981.58
2017-10-27T06:19:41.235Z,981.60
2017-10-27T06:20:41.239Z,981.71
2017-10-27T06:21:41.228Z,981.74
2017-10-27T06:22:41.224Z,981.71
2017-10-27T06:23:41.221Z,981.71
2017-10-27T06:24:41.219Z,981.76
2017-10-27T06:25:41.216Z,981.76
2017-10-27T06:26:41.215Z,981.79
2017-10-27T06:27:41.204Z,981.78
2017-10-27T06:28:41.205Z,981.79
2017-10-27T06:29:41.202Z,981.84
2017-10-27T06:30:41.198Z,981.80
2017-10-27T06:31:41.196Z,981.84
2017-10-27T06:32:41.196Z,981.87
2017-10-27T06:33:41.187Z,981.85
2017-10-27T06:34:41.187Z,981.89
2017-10-27T06:35:41.181Z,981.93
2017-10-27T06:36:41.179Z,981.91
2017-10-27T06:37:41.188Z,981.94
2017-10-27T06:38:41.173Z,981.96
2017-10-27T06:39:41.168Z,981.92
2017-10-27T06:40:41.167Z,981.90
2017-10-27T06:41:41.163Z,981.90
2017-10-27T06:42:41.159Z,981.92
2017-10-27T06:43:41.158Z,981.96
2017-10-27T06:44:41.160Z,981.95
2017-10-27T06:45:41.146Z,981.97
2017-10-27T06:46:41.146Z,981.92
2017-10-27T06:47:41.143Z,981.98
2017-10-27T06:48:41.159Z,981.96
2017-10-27T06:49:41.134Z,981.94
2017-10-27T06:50:41.131Z,981.96
2017-10-27T06:51:41.125Z,981.92
2017-10-27T06:52:41.124Z,981.99
2017-10-27T06:53:41.123Z,981.84
2017-10-27T06:54:41.117Z,981.97
2017-10-27T06:55:41.112Z,982.02
2017-10-27T06:56:41.117Z,981.99
2017-10-27T06:57:41.108Z,982.07
2017-10-27T06:58:41.102Z,982.01
2017-10-27T06:59:41.100Z,981.99
2017-10-27T07:00:41.099Z,982.01
2017-10-27T07:01:41.094Z,982.04
2017-10-27T07:02:41.094Z,982.01
2017-10-27T07:03:41.089Z,981.91
2017-10-27T07:04:41.084Z,981.97
2017-10-27T07:05:41.081Z,981.95
2017-10-27T07:06:41.077Z,982.01
2017-10-27T07:07:41.075Z,982.06
2017-10-27T07:08:41.123Z,982.04
2017-10-27T07:09:41.067Z,982.04
2017-10-27T07:10:41.064Z,982.06
2017-10-27T07:11:41.061Z,982.05
2017-10-27T07:12:41.060Z,982.10
2017-10-27T07:13:41.053Z,982.14
2017-10-27T07:14:41.055Z,982.02
2017-10-27T07:15:41.045Z,982.05
2017-10-27T07:16:41.042Z,982.09
2017-10-27T07:17:41.040Z,982.16
2017-10-27T07:18:41.034Z,982.16
2017-10-27T07:19:41.031Z,982.13
2017-10-27T07:20:41.031Z,982.09
2017-10-27T07:21:41.026Z,982.01
2017-10-27T07:22:41.020Z,982.08
2017-10-27T07:23:41.014Z,982.08
2017-10-27T07:24:41.015Z,982.17
2017-10-27T07:25:41.010Z,982.20
2017-10-27T07:26:41.007Z,982.17
2017-10-27T07:27:41.006Z,982.14
2017-10-27T07:28:41.002Z,982.13
2017-10-27T07:29:40.998Z,982.18
2017-10-27T07:30:40.994Z,982.13
2017-10-27T07:31:40.991Z,982.14
2017-10-27T07:32:40.989Z,982.06
2017-10-27T07:33:40.989Z,982.08
2017-10-27T07:34:40.983Z,982.15
2017-10-27T07:35:40.979Z,982.14
2017-10-27T07:36:40.971Z,982.13
2017-10-27T07:37:40.972Z,982.07
2017-10-27T07:38:40.967Z,982.25
2017-10-27T07:39:40.961Z,982.08
2017-10-27T07:40:40.960Z,982.03
2017-10-27T07:41:40.955Z,982.12
2017-10-27T07:42:40.951Z,982.14
2017-10-27T07:43:40.948Z,982.16
2017-10-27T07:44:40.946Z,982.14
2017-10-27T07:45:40.947Z,982.11
2017-10-27T07:46:40.936Z,982.14
2017-10-27T07:47:40.934Z,982.13
2017-10-27T07:48:40.928Z,982.17
2017-10-27T07:49:40.929Z,982.03
2017-10-27T07:50:40.924Z,982.18
2017-10-27T07:51:40.919Z,982.21
2017-10-27T07:52:40.915Z,982.22
2017-10-27T07:53:40.910Z,982.31
2017-10-27T07:54:40.909Z,982.24
2017-10-27T07:55:40.904Z,982.28
2017-10-27T07:56:40.900Z,982.31
2017-10-27T07:57:40.897Z,982.33
2017-10-27T07:58:40.893Z,982.17
2017-10-27T07:59:40.904Z,982.40
2017-10-27T08:00:40.888Z,982.38
2017-10-27T08:01:40.880Z,982.42
2017-10-27T08:02:40.884Z,982.47
2017-10-27T08:03:40.871Z,982.44
2017-10-27T08:04:40.873Z,982.45
2017-10-27T08:05:40.864Z,982.40
2017-10-27T08:06:40.861Z,982.42
2017-10-27T08:07:40.859Z,982.46
2017-10-27T08:08:40.854Z,982.45
2017-10-27T08:09:40.852Z,982.49
2017-10-27T08:10:40.845Z,982.38
2017-10-27T08:11:40.843Z,982.37
2017-10-27T08:12:40.839Z,982.41
2017-10-27T08:13:40.838Z,982.40
2017-10-27T08:14:40.831Z,982.38
2017-10-27T08:15:40.830Z,982.42
2017-10-27T08:16:40.826Z,982.38
2017-10-27T08:17:40.819Z,982.36
2017-10-27T08:18:40.823Z,982.45
2017-10-27T08:19:40.814Z,982.45
2017-10-27T08:20:40.810Z,982.48
2017-10-27T08:21:40.810Z,982.45
2017-10-27T08:22:40.805Z,982.52
2017-10-27T08:23:40.801Z,982.56
2017-10-27T08:24:40.799Z,982.58
2017-10-27T08:25:40.800Z,982.56
2017-10-27T08:26:40.784Z,982.57
2017-10-27T08:27:40.786Z,982.60
2017-10-27T08:28:40.782Z,982.66
2017-10-27T08:29:40.776Z,982.62
2017-10-27T08:30:40.774Z,982.66
2017-10-27T08:31:40.777Z,982.63
2017-10-27T08:32:40.774Z,982.62
2017-10-27T08:33:40.761Z,982.69
2017-10-27T08:34:40.765Z,982.70
2017-10-27T08:35:40.756Z,982.70
2017-10-27T08:36:40.757Z,982.75
2017-10-27T08:37:40.753Z,982.73
2017-10-27T08:38:40.749Z,982.70
2017-10-27T08:39:40.757Z,982.74
2017-10-27T08:40:40.741Z,982.76
2017-10-27T08:41:40.737Z,982.84
2017-10-27T08:42:40.734Z,982.78
2017-10-27T08:43:40.732Z,982.83
2017-10-27T08:44:40.725Z,982.84
2017-10-27T08:45:40.722Z,982.84
2017-10-27T08:46:40.725Z,982.81
2017-10-27T08:47:40.718Z,982.77
2017-10-27T08:48:40.715Z,982.79
2017-10-27T08:49:40.712Z,982.73
2017-10-27T08:50:40.709Z,982.78
2017-10-27T08:51:40.706Z,982.80
2017-10-27T08:52:40.706Z,982.79
2017-10-27T08:53:40.703Z,982.86
2017-10-27T08:54:40.699Z,982.84
2017-10-27T08:55:40.698Z,982.83
2017-10-27T08:56:40.692Z,982.81
2017-10-27T08:57:40.692Z,982.89
2017-10-27T08:58:40.687Z,982.76
2017-10-27T08:59:40.697Z,983.00
2017-10-27T09:00:40.683Z,982.88
2017-10-27T09:01:40.680Z,982.90
2017-10-27T09:02:40.680Z,982.95
2017-10-27T09:03:40.675Z,982.92
2017-10-27T09:04:40.665Z,982.95
2017-10-27T09:05:40.670Z,982.99
2017-10-27T09:06:40.664Z,983.03
2017-10-27T09:07:40.667Z,983.01
2017-10-27T09:08:40.660Z,983.02
2017-10-27T09:09:40.657Z,983.05
2017-10-27T09:10:40.652Z,983.08
2017-10-27T09:11:40.652Z,983.12
2017-10-27T09:12:40.648Z,983.11
2017-10-27T09:13:40.642Z,983.18
2017-10-27T09:14:40.642Z,982.95
2017-10-27T09:15:40.636Z,983.13
2017-10-27T09:16:40.634Z,983.18
2017-10-27T09:17:40.633Z,983.22
2017-10-27T09:18:40.628Z,983.23
2017-10-27T09:19:40.625Z,983.28
2017-10-27T09:20:40.622Z,983.29
2017-10-27T09:21:40.620Z,983.26
2017-10-27T09:22:40.619Z,983.37
2017-10-27T09:23:40.612Z,983.39
2017-10-27T09:24:40.610Z,983.26
2017-10-27T09:25:40.609Z,983.04
2017-10-27T09:26:40.604Z,983.46
2017-10-27T09:27:40.602Z,983.32
2017-10-27T09:28:40.600Z,983.35
2017-10-27T09:29:40.594Z,983.35
2017-10-27T09:30:40.591Z,983.29
2017-10-27T09:31:40.588Z,983.34
2017-10-27T09:32:40.587Z,983.38
2017-10-27T09:33:40.582Z,983.42
2017-10-27T09:34:40.584Z,983.41
2017-10-27T09:35:40.572Z,983.44
2017-10-27T09:36:40.573Z,983.45
2017-10-27T09:37:40.569Z,983.38
2017-10-27T09:38:40.566Z,983.41
2017-10-27T09:39:40.563Z,983.43
2017-10-27T09:40:40.560Z,983.32
2017-10-27T09:41:40.559Z,983.43
2017-10-27T09:42:40.556Z,983.41
2017-10-27T09:43:40.551Z,983.43
2017-10-27T09:44:40.549Z,983.45
2017-10-27T09:45:40.546Z,983.43
2017-10-27T09:46:40.542Z,983.37
2017-10-27T09:47:40.541Z,983.40
2017-10-27T09:48:40.536Z,983.40
2017-10-27T09:49:40.538Z,983.45
2017-10-27T09:50:40.529Z,983.47
2017-10-27T09:51:40.532Z,983.50
2017-10-27T09:52:40.528Z,983.47
2017-10-27T09:53:40.522Z,983.64
2017-10-27T09:54:40.518Z,983.57
2017-10-27T09:55:40.515Z,983.60
2017-10-27T09:56:40.513Z,983.57
2017-10-27T09:57:40.513Z,983.54
2017-10-27T09:58:40.506Z,983.66
2017-10-27T09:59:40.506Z,983.67
2017-10-27T10:00:40.505Z,983.69
2017-10-27T10:01:40.500Z,983.68
2017-10-27T10:02:40.518Z,983.68
2017-10-27T10:03:40.495Z,983.69
2017-10-27T10:04:40.493Z,983.69
2017-10-27T10:05:40.490Z,983.76
2017-10-27T10:06:40.497Z,983.77
2017-10-27T10:07:40.485Z,983.79
2017-10-27T10:08:40.479Z,983.79
2017-10-27T10:09:40.482Z,983.73
2017-10-27T10:10:40.477Z,983.82
2017-10-27T10:11:40.475Z,983.64
2017-10-27T10:12:40.475Z,983.79
2017-10-27T10:13:40.472Z,983.77
2017-10-27T10:14:40.467Z,983.77
2017-10-27T10:15:40.466Z,983.77
2017-10-27T10:16:40.462Z,983.78
2017-10-27T10:17:40.463Z,983.94
2017-10-27T10:18:40.460Z,983.81
2017-10-27T10:19:40.457Z,983.60
2017-10-27T10:20:40.457Z,983.75
2017-10-27T10:21:40.453Z,983.78
2017-10-27T10:22:40.452Z,983.74
2017-10-27T10:23:40.449Z,983.79
2017-10-27T10:24:40.446Z,983.77
2017-10-27T10:25:40.444Z,983.83
2017-10-27T10:26:40.441Z,983.79
2017-10-27T10:27:40.443Z,983.84
2017-10-27T10:28:40.451Z,983.83
2017-10-27T10:29:40.436Z,983.79
2017-10-27T10:30:40.432Z,983.84
2017-10-27T10:31:40.429Z,983.92
2017-10-27T10:32:40.430Z,983.87
2017-10-27T10:33:40.423Z,983.96
2017-10-27T10:34:40.423Z,983.96
2017-10-27T10:35:40.423Z,984.03
2017-10-27T10:36:40.418Z,984.00
2017-10-27T10:37:40.418Z,983.92
2017-10-27T10:38:40.415Z,983.98
2017-10-27T10:39:40.413Z,983.98
2017-10-27T10:40:40.410Z,983.92
2017-10-27T10:41:40.406Z,984.00
2017-10-27T10:42:40.426Z,983.97
2017-10-27T10:43:40.400Z,984.05
2017-10-27T10:44:40.403Z,983.85
2017-10-27T10:45:40.401Z,983.90
2017-10-27T10:46:40.391Z,983.98
2017-10-27T10:47:40.393Z,984.00
2017-10-27T10:48:40.392Z,984.02
2017-10-27T10:49:40.397Z,983.98
2017-10-27T10:50:40.386Z,984.06
2017-10-27T10:51:40.389Z,984.05
2017-10-27T10:52:40.381Z,984.04
2017-10-27T10:53:40.384Z,983.96
2017-10-27T10:54:40.379Z,984.02
2017-10-27T10:55:40.375Z,983.91
2017-10-27T10:56:40.377Z,983.92
2017-10-27T10:57:40.378Z,983.85
2017-10-27T10:58:40.377Z,984.02
2017-10-27T10:59:40.367Z,983.96
2017-10-27T11:00:40.363Z,983.88
2017-10-27T11:01:40.366Z,983.95
2017-10-27T11:02:40.360Z,984.01
2017-10-27T11:03:40.363Z,984.00
2017-10-27T11:04:40.367Z,983.99
2017-10-27T11:05:40.358Z,984.05
2017-10-27T11:06:40.357Z,983.97
2017-10-27T11:07:40.358Z,984.00
2017-10-27T11:08:40.366Z,983.97
2017-10-27T11:09:40.358Z,984.05
2017-10-27T11:10:40.347Z,983.95
2017-10-27T11:11:40.344Z,983.98
2017-10-27T11:12:40.344Z,983.96
2017-10-27T11:13:40.356Z,984.12
2017-10-27T11:14:40.374Z,984.00
2017-10-27T11:15:40.337Z,984.14
2017-10-27T11:16:40.336Z,984.28
2017-10-27T11:17:48.961Z,984.02
2017-10-27T11:19:41.835Z,984.12
2017-10-27T11:20:33.694Z,984.15
2017-10-27T11:22:27.133Z,984.11
2017-10-27T11:23:27.108Z,984.15
2017-10-27T11:25:21.494Z,984.31
2017-10-27T11:26:21.497Z,984.28
2017-10-27T11:28:15.859Z,984.35
2017-10-27T11:29:15.840Z,984.17
2017-10-27T11:31:09.225Z,984.15
2017-10-27T11:32:09.202Z,984.34
2017-10-27T11:34:03.587Z,984.28
2017-10-27T11:35:03.566Z,984.33
2017-10-27T11:36:56.971Z,984.34
2017-10-27T11:37:56.950Z,984.28
2017-10-27T11:39:50.341Z,984.35
2017-10-27T11:40:50.319Z,984.17
2017-10-27T11:42:43.702Z,984.31
2017-10-27T11:43:43.684Z,984.37
2017-10-27T11:45:37.072Z,984.34
2017-10-27T11:46:37.048Z,984.30
2017-10-27T11:48:30.447Z,984.33
2017-10-27T11:49:30.417Z,984.34
2017-10-27T11:51:23.799Z,984.31
2017-10-27T11:52:23.779Z,984.53
2017-10-27T11:53:23.779Z,984.53
2017-10-27T11:54:23.777Z,984.49
2017-10-27T11:55:23.775Z,984.53
2017-10-27T11:56:23.770Z,984.52
2017-10-27T11:57:23.765Z,984.57
2017-10-27T11:58:23.765Z,984.47
2017-10-27T11:59:23.763Z,984.52
2017-10-27T12:00:23.776Z,984.48
2017-10-27T12:01:23.760Z,984.58
2017-10-27T12:02:23.756Z,984.50
2017-10-27T12:03:23.754Z,984.57
2017-10-27T12:04:23.758Z,984.55
2017-10-27T12:05:23.748Z,984.59
2017-10-27T12:06:23.749Z,984.48
2017-10-27T12:07:23.746Z,984.56
2017-10-27T12:08:23.741Z,984.68
2017-10-27T12:09:23.740Z,984.64
2017-10-27T12:10:23.756Z,984.67
2017-10-27T12:11:23.740Z,984.66
2017-10-27T12:12:23.739Z,984.76
2017-10-27T12:13:23.730Z,984.78
2017-10-27T12:14:23.727Z,984.94
2017-10-27T12:15:23.727Z,984.91
2017-10-27T12:16:23.724Z,984.74
2017-10-27T12:17:23.721Z,984.70
2017-10-27T12:18:23.721Z,984.81
2017-10-27T12:19:23.718Z,984.82
2017-10-27T12:20:23.721Z,984.92
2017-10-27T12:21:23.712Z,984.90
2017-10-27T12:22:23.711Z,984.85
2017-10-27T12:23:23.711Z,984.87
2017-10-27T12:24:23.708Z,984.96
2017-10-27T12:25:23.697Z,984.93
2017-10-27T12:26:23.699Z,984.91
2017-10-27T12:27:23.699Z,984.93
2017-10-27T12:28:23.693Z,984.88
2017-10-27T12:29:23.693Z,984.86
2017-10-27T12:30:23.693Z,984.81
2017-10-27T12:31:23.687Z,984.68
2017-10-27T12:32:23.704Z,984.84
2017-10-27T12:33:23.680Z,984.88
2017-10-27T12:34:23.683Z,984.87
2017-10-27T12:35:23.677Z,984.87
2017-10-27T12:36:23.671Z,984.88
2017-10-27T12:37:23.667Z,984.94
2017-10-27T12:38:23.668Z,985.00
2017-10-27T12:39:23.663Z,984.87